Silverado, California
Current Conditions -  °F | °C
As of 3:56 PM on Friday 28 Nov 2014 (Local Time) from KAJO Reporting Station
Clear Clear  
Wind Chill: 26°   Ceiling: Unl
Heat Index: 26°   Visibility: 10mi
Dew Point:   Wind: 0mph
Humidity: 22%   Direction: NA
Pressure: 29.88"   Gusts: NA
Location:  33.75°N, 117.64°W
Report Text: KAJO 282356Z AUTO 00000KT 10SM CLR 26/03 A2988 RMK AO2 56016 T02610027 10283 20177 SLP116 $
Loading
Personal Weather Stations






























Interactive Weather Map New forecast layout! Learn more

10-Day Weather Forecast

Advertisements
Track Severe Weather on mobile